Time;durP1;ratioP1;P1;durP2;ratioP2;P2;SDS_P1;SDS_P2;PMS_P1;PMS_P2;Temp;Humidity;BMP_temperature;BMP_pressure;BME280_temperature;BME280_humidity;BME280_pressure;Samples;Min_cycle;Max_cycle;Signal;HPM_P1;HPM_P2
2021/10/14 00:01:09;;;;;;;9.77;4.50;;;8.70;97.30;;;;;;5030922;28;20212;-85
2021/10/14 00:03:35;;;;;;;9.97;4.90;;;8.70;97.30;;;;;;5019293;28;20229;-85
2021/10/14 00:06:01;;;;;;;10.37;4.40;;;8.70;97.30;;;;;;5007983;28;20173;-84
2021/10/14 00:08:26;;;;;;;11.60;4.80;;;8.70;97.30;;;;;;5001341;28;20228;-85
2021/10/14 00:10:52;;;;;;;10.53;4.83;;;8.70;97.30;;;;;;4992552;28;20174;-84
2021/10/14 00:13:17;;;;;;;10.17;4.30;;;8.70;97.30;;;;;;5005846;28;20188;-83
2021/10/14 00:15:43;;;;;;;14.60;5.10;;;8.70;97.30;;;;;;5011124;28;20211;-84
2021/10/14 00:18:08;;;;;;;8.07;4.63;;;8.70;97.30;;;;;;5010447;28;20189;-85
2021/10/14 00:20:34;;;;;;;14.03;4.80;;;8.70;97.30;;;;;;5012506;28;20199;-83
2021/10/14 00:23:00;;;;;;;13.40;4.70;;;8.70;97.30;;;;;;4999648;28;20232;-85
2021/10/14 00:25:26;;;;;;;9.47;4.83;;;8.70;97.30;;;;;;5010798;28;20440;-84
2021/10/14 00:27:52;;;;;;;11.90;4.30;;;8.70;97.30;;;;;;5011870;28;20177;-85
2021/10/14 00:30:19;;;;;;;8.67;4.23;;;8.70;97.30;;;;;;5011594;28;20557;-84
2021/10/14 00:32:45;;;;;;;11.50;4.77;;;8.70;97.30;;;;;;5010657;28;20424;-84
2021/10/14 00:35:11;;;;;;;11.87;4.77;;;8.70;97.30;;;;;;5012331;28;20427;-84
2021/10/14 00:37:37;;;;;;;10.00;5.40;;;8.70;97.30;;;;;;5004842;28;20567;-84
2021/10/14 00:40:04;;;;;;;9.93;4.43;;;8.70;97.30;;;;;;4991519;28;20227;-84
2021/10/14 00:42:30;;;;;;;10.27;4.60;;;8.70;97.30;;;;;;5002380;28;20176;-84
2021/10/14 00:44:56;;;;;;;9.20;4.60;;;8.70;97.30;;;;;;5011436;28;20527;-84
2021/10/14 00:47:27;;;;;;;11.93;5.23;;;8.70;97.30;;;;;;4991590;28;20184;-84
2021/10/14 00:49:54;;;;;;;13.47;5.50;;;8.70;97.30;;;;;;5020970;28;20849;-84
2021/10/14 00:52:20;;;;;;;11.70;5.13;;;8.70;97.30;;;;;;5008324;28;20424;-85
2021/10/14 00:54:47;;;;;;;11.67;5.00;;;8.70;97.30;;;;;;4990935;28;20433;-84
2021/10/14 00:57:13;;;;;;;10.70;5.00;;;8.70;97.30;;;;;;4990565;28;20969;-84
2021/10/14 00:59:40;;;;;;;9.70;4.80;;;8.70;97.30;;;;;;4990642;28;20480;-84
2021/10/14 01:02:07;;;;;;;7.73;4.27;;;8.70;97.30;;;;;;4997467;28;20945;-83
2021/10/14 01:04:33;;;;;;;8.60;4.63;;;8.70;97.30;;;;;;5022665;28;20478;-83
2021/10/14 01:06:59;;;;;;;11.93;4.30;;;8.70;97.30;;;;;;5030192;28;20921;-83
2021/10/14 01:09:25;;;;;;;12.53;5.80;;;8.80;97.30;;;;;;5030151;28;20502;-84
2021/10/14 01:11:51;;;;;;;8.50;4.97;;;8.70;97.30;;;;;;5030324;28;20450;-83
2021/10/14 01:14:18;;;;;;;9.13;4.07;;;8.80;97.30;;;;;;5030228;28;20789;-83
2021/10/14 01:16:46;;;;;;;10.13;4.90;;;8.80;97.30;;;;;;5032166;28;20421;-83
2021/10/14 01:19:14;;;;;;;10.20;5.50;;;8.80;97.30;;;;;;5034203;28;20431;-83
2021/10/14 01:21:40;;;;;;;9.87;5.43;;;8.80;97.30;;;;;;5030913;28;20601;-83
2021/10/14 01:24:06;;;;;;;10.13;5.70;;;8.80;97.30;;;;;;5013993;28;20445;-84
2021/10/14 01:26:32;;;;;;;11.53;6.00;;;8.80;97.30;;;;;;5014901;28;20428;-83
2021/10/14 01:28:58;;;;;;;12.93;5.27;;;8.80;97.30;;;;;;5014148;28;20926;-83
2021/10/14 01:31:24;;;;;;;9.13;5.73;;;8.80;97.30;;;;;;5015903;28;20177;-83
2021/10/14 01:33:50;;;;;;;10.40;5.30;;;8.90;97.30;;;;;;5034450;28;20458;-84
2021/10/14 01:36:16;;;;;;;11.10;5.27;;;8.90;97.30;;;;;;5031234;28;20426;-83
2021/10/14 01:38:42;;;;;;;10.13;5.60;;;8.90;97.30;;;;;;5033308;28;20478;-84
2021/10/14 01:41:08;;;;;;;7.07;4.80;;;8.90;97.30;;;;;;5033218;28;20610;-84
2021/10/14 01:43:34;;;;;;;11.27;5.30;;;8.90;97.30;;;;;;5024646;28;20447;-84
2021/10/14 01:46:00;;;;;;;8.00;4.77;;;8.90;97.30;;;;;;5014020;28;20555;-84
2021/10/14 01:48:27;;;;;;;12.77;5.80;;;8.90;97.30;;;;;;5034249;28;20426;-84
2021/10/14 01:50:54;;;;;;;12.00;6.70;;;8.90;97.30;;;;;;5054695;28;20705;-83
2021/10/14 01:53:19;;;;;;;8.50;5.47;;;8.90;97.30;;;;;;5039447;28;20488;-84
2021/10/14 01:55:45;;;;;;;10.77;5.50;;;8.90;97.30;;;;;;5034963;28;20509;-83
2021/10/14 01:58:11;;;;;;;12.27;6.20;;;8.90;97.30;;;;;;5035357;28;20173;-84
2021/10/14 02:00:37;;;;;;;9.77;5.97;;;9.00;97.30;;;;;;5034978;28;20414;-84
2021/10/14 02:03:04;;;;;;;16.60;5.50;;;9.00;97.30;;;;;;5035459;28;20176;-83
2021/10/14 02:05:29;;;;;;;14.77;6.57;;;9.00;97.30;;;;;;5038036;28;20970;-83
2021/10/14 02:07:55;;;;;;;20.73;6.87;;;8.90;97.30;;;;;;5025000;28;20419;-83
2021/10/14 02:10:21;;;;;;;20.67;7.03;;;8.90;97.30;;;;;;5034967;28;20276;-84
2021/10/14 02:12:47;;;;;;;17.03;7.00;;;9.00;97.30;;;;;;5017780;28;20215;-83
2021/10/14 02:15:13;;;;;;;10.77;6.03;;;8.90;97.30;;;;;;5034157;28;20204;-83
2021/10/14 02:17:39;;;;;;;17.77;7.23;;;8.90;97.30;;;;;;5036653;28;20423;-83
2021/10/14 02:20:06;;;;;;;16.93;7.80;;;8.90;97.30;;;;;;5055840;28;20462;-83
2021/10/14 02:22:32;;;;;;;14.13;6.50;;;8.90;97.30;;;;;;5028543;28;20176;-84
2021/10/14 02:24:59;;;;;;;13.77;6.77;;;8.90;97.30;;;;;;5029364;28;20441;-85
2021/10/14 02:27:25;;;;;;;20.57;6.97;;;8.90;97.30;;;;;;5036898;28;20225;-83
2021/10/14 02:29:50;;;;;;;13.47;6.60;;;8.90;97.30;;;;;;5024411;28;20861;-83
2021/10/14 02:32:16;;;;;;;19.70;7.77;;;8.90;97.30;;;;;;5021092;28;20275;-82
2021/10/14 02:34:42;;;;;;;18.87;8.00;;;8.90;97.30;;;;;;5034676;28;20333;-82
2021/10/14 02:37:07;;;;;;;16.77;7.30;;;8.90;97.30;;;;;;5030409;28;20262;-82
2021/10/14 02:39:33;;;;;;;18.80;7.33;;;8.90;97.30;;;;;;5033471;28;20172;-81
2021/10/14 02:41:59;;;;;;;17.30;8.03;;;8.90;97.30;;;;;;5020269;28;20194;-82
2021/10/14 02:44:24;;;;;;;32.63;10.50;;;8.90;97.30;;;;;;5036866;28;20214;-81
2021/10/14 02:46:50;;;;;;;18.87;9.47;;;8.90;97.30;;;;;;5048145;28;20183;-83
2021/10/14 02:49:16;;;;;;;15.10;7.60;;;8.90;97.30;;;;;;5045748;28;20285;-82
2021/10/14 02:51:41;;;;;;;26.00;9.00;;;9.00;97.30;;;;;;5051218;28;20541;-82
2021/10/14 02:54:07;;;;;;;17.70;8.00;;;9.00;97.30;;;;;;5016029;28;20196;-82
2021/10/14 02:56:32;;;;;;;18.80;8.57;;;9.00;97.30;;;;;;5020182;28;20176;-84
2021/10/14 02:58:58;;;;;;;16.20;7.80;;;9.00;97.30;;;;;;5031140;28;20171;-82
2021/10/14 03:01:23;;;;;;;19.57;8.20;;;9.00;97.30;;;;;;5031341;28;20249;-82
2021/10/14 03:03:49;;;;;;;15.17;7.13;;;9.00;97.30;;;;;;5033667;28;20224;-83
2021/10/14 03:06:15;;;;;;;15.10;7.23;;;9.00;97.30;;;;;;5035658;28;20258;-84
2021/10/14 03:08:40;;;;;;;16.50;6.10;;;9.00;97.30;;;;;;5023251;28;20307;-83
2021/10/14 03:11:06;;;;;;;15.77;6.57;;;9.00;97.30;;;;;;5032432;28;20177;-83
2021/10/14 03:13:31;;;;;;;14.50;6.67;;;9.00;97.30;;;;;;5016512;28;20212;-83
2021/10/14 03:15:57;;;;;;;11.50;5.90;;;9.00;97.30;;;;;;5015715;28;20200;-82
2021/10/14 03:18:23;;;;;;;15.50;7.50;;;9.00;97.30;;;;;;5033406;28;20794;-82
2021/10/14 03:20:48;;;;;;;17.90;6.70;;;9.00;97.30;;;;;;5015431;28;20242;-82
2021/10/14 03:23:14;;;;;;;14.47;7.30;;;9.00;97.30;;;;;;5015523;28;20259;-83
2021/10/14 03:25:39;;;;;;;11.80;6.50;;;9.00;97.30;;;;;;5034890;28;20677;-83
2021/10/14 03:28:05;;;;;;;15.60;6.83;;;9.00;97.30;;;;;;5035432;28;20179;-83
2021/10/14 03:30:32;;;;;;;16.33;6.50;;;9.00;97.30;;;;;;5017357;28;20192;-83
2021/10/14 03:32:57;;;;;;;15.60;7.00;;;9.00;97.30;;;;;;5025340;28;20180;-81
2021/10/14 03:35:23;;;;;;;14.70;6.80;;;9.00;97.30;;;;;;5053638;28;20437;-82
2021/10/14 03:37:49;;;;;;;15.57;7.47;;;9.00;97.30;;;;;;5026724;28;20184;-83
2021/10/14 03:40:14;;;;;;;18.70;6.30;;;9.00;97.30;;;;;;5035168;28;20199;-81
2021/10/14 03:42:40;;;;;;;12.90;5.87;;;9.00;97.30;;;;;;5035213;28;20175;-82
2021/10/14 03:45:07;;;;;;;20.93;6.23;;;9.00;97.30;;;;;;5036154;28;20717;-82
2021/10/14 03:47:32;;;;;;;16.40;6.90;;;9.00;97.30;;;;;;5035802;28;20270;-82
2021/10/14 03:49:58;;;;;;;13.53;6.40;;;9.00;97.30;;;;;;5039986;28;20472;-82
2021/10/14 03:52:24;;;;;;;12.13;6.20;;;9.00;97.30;;;;;;5053211;28;20179;-82
2021/10/14 03:54:49;;;;;;;13.90;6.60;;;9.00;97.30;;;;;;5035896;28;20411;-82
2021/10/14 03:57:15;;;;;;;10.83;5.33;;;9.00;97.30;;;;;;5056088;28;20175;-82
2021/10/14 03:59:40;;;;;;;10.20;5.30;;;9.00;97.30;;;;;;5038272;28;20267;-82
2021/10/14 04:02:07;;;;;;;13.03;6.10;;;9.00;97.30;;;;;;5027711;28;20172;-83
2021/10/14 04:04:32;;;;;;;15.00;6.20;;;9.00;97.30;;;;;;5037064;28;20272;-82
2021/10/14 04:06:58;;;;;;;14.93;5.77;;;9.00;97.30;;;;;;5037183;28;20494;-83
2021/10/14 04:09:23;;;;;;;12.27;5.73;;;9.00;97.30;;;;;;5037928;28;20183;-83
2021/10/14 04:11:49;;;;;;;16.73;5.67;;;9.00;97.30;;;;;;5017451;28;20218;-83
2021/10/14 04:14:14;;;;;;;12.83;5.43;;;9.00;97.30;;;;;;5033904;28;20219;-82
2021/10/14 04:16:40;;;;;;;10.50;5.50;;;9.00;97.30;;;;;;5034709;28;20180;-83
2021/10/14 04:19:07;;;;;;;13.73;6.40;;;9.00;97.30;;;;;;5016612;28;20242;-84
2021/10/14 04:21:35;;;;;;;12.70;5.47;;;9.00;97.30;;;;;;5048464;28;20192;-82
2021/10/14 04:24:01;;;;;;;17.70;6.60;;;9.00;97.30;;;;;;5023076;28;20478;-82
2021/10/14 04:26:26;;;;;;;15.30;6.00;;;9.00;97.30;;;;;;5054746;28;20425;-84
2021/10/14 04:28:52;;;;;;;15.83;6.33;;;9.00;97.30;;;;;;5047649;28;20656;-83
2021/10/14 04:31:18;;;;;;;15.80;6.30;;;9.10;97.30;;;;;;5035031;28;20196;-82
2021/10/14 04:33:43;;;;;;;15.20;6.33;;;9.00;97.30;;;;;;5018546;28;20238;-82
2021/10/14 04:36:09;;;;;;;13.47;6.37;;;9.10;97.30;;;;;;5017654;28;20181;-83
2021/10/14 04:38:35;;;;;;;13.93;7.20;;;9.10;97.30;;;;;;5026401;28;20198;-82
2021/10/14 04:41:01;;;;;;;14.47;6.90;;;9.10;97.30;;;;;;5017032;28;20204;-83
2021/10/14 04:43:26;;;;;;;15.60;6.33;;;9.10;97.30;;;;;;5041556;28;20578;-81
2021/10/14 04:45:53;;;;;;;15.97;7.00;;;9.10;97.30;;;;;;5035964;28;20275;-82
2021/10/14 04:48:19;;;;;;;12.33;5.87;;;9.10;97.30;;;;;;5035814;28;20184;-83
2021/10/14 04:50:45;;;;;;;16.53;7.63;;;9.10;97.30;;;;;;5044416;28;20428;-83
2021/10/14 04:53:11;;;;;;;18.50;7.47;;;9.10;97.30;;;;;;5045622;28;20818;-83
2021/10/14 04:55:36;;;;;;;15.40;6.80;;;9.10;97.30;;;;;;5034682;28;20537;-83
2021/10/14 04:58:03;;;;;;;16.80;6.63;;;9.10;97.30;;;;;;5020331;28;20256;-82
2021/10/14 05:00:29;;;;;;;16.00;6.60;;;9.10;97.30;;;;;;5036874;28;20239;-83
2021/10/14 05:02:54;;;;;;;18.90;6.93;;;9.10;97.30;;;;;;5020052;28;20411;-83
2021/10/14 05:05:20;;;;;;;21.70;7.43;;;9.10;97.30;;;;;;5022005;28;20843;-83
2021/10/14 05:07:46;;;;;;;15.23;7.13;;;9.10;97.30;;;;;;5038987;28;20176;-83
2021/10/14 05:10:12;;;;;;;16.23;6.43;;;9.10;97.30;;;;;;5038446;28;20183;-83
2021/10/14 05:12:37;;;;;;;18.30;7.20;;;9.10;97.30;;;;;;5036703;28;20638;-84
2021/10/14 05:15:08;;;;;;;18.27;7.30;;;9.10;97.30;;;;;;5037578;28;20204;-84
2021/10/14 05:17:34;;;;;;;20.13;8.50;;;9.10;97.30;;;;;;5036984;28;20183;-84
2021/10/14 05:20:05;;;;;;;14.10;6.63;;;9.10;97.30;;;;;;5036373;28;20462;-84
2021/10/14 05:22:31;;;;;;;15.90;7.50;;;9.10;97.30;;;;;;5037653;28;20421;-83
2021/10/14 05:24:57;;;;;;;17.47;7.37;;;9.10;97.30;;;;;;5038129;28;20435;-85
2021/10/14 05:27:22;;;;;;;16.23;7.13;;;9.10;97.30;;;;;;5019281;28;20176;-83
2021/10/14 05:29:48;;;;;;;20.07;7.67;;;9.10;97.30;;;;;;5017590;28;20207;-83
2021/10/14 05:32:14;;;;;;;20.67;7.60;;;9.10;97.30;;;;;;5017661;28;20427;-84
2021/10/14 05:34:40;;;;;;;18.27;8.00;;;9.10;97.30;;;;;;5035649;28;20196;-84
2021/10/14 05:37:05;;;;;;;17.27;7.97;;;9.10;97.30;;;;;;5037640;28;20428;-83
2021/10/14 05:39:32;;;;;;;18.33;8.37;;;9.10;97.30;;;;;;5022507;28;20180;-83
2021/10/14 05:41:57;;;;;;;17.40;7.70;;;9.10;97.30;;;;;;5040198;28;20211;-82
2021/10/14 05:44:23;;;;;;;20.50;7.60;;;9.10;97.30;;;;;;5037187;28;20494;-82
2021/10/14 05:46:49;;;;;;;15.93;7.43;;;9.10;97.30;;;;;;5046010;28;20194;-85
2021/10/14 05:49:15;;;;;;;19.33;8.53;;;9.10;97.30;;;;;;5062941;28;20225;-85
2021/10/14 05:51:41;;;;;;;18.17;7.83;;;9.10;97.30;;;;;;5036656;28;20418;-84
2021/10/14 05:54:07;;;;;;;15.00;8.00;;;9.20;97.30;;;;;;5035425;28;20442;-83
2021/10/14 05:56:32;;;;;;;13.90;6.70;;;9.10;97.30;;;;;;5035755;28;20206;-85
2021/10/14 05:58:58;;;;;;;16.43;7.60;;;9.10;97.30;;;;;;5035811;28;20172;-83
2021/10/14 06:01:24;;;;;;;16.47;7.33;;;9.20;97.30;;;;;;5033805;28;20210;-84
2021/10/14 06:03:49;;;;;;;15.47;7.10;;;9.10;97.30;;;;;;5033027;28;20846;-85
2021/10/14 06:06:15;;;;;;;17.60;8.60;;;9.20;97.30;;;;;;5029478;28;20172;-85
2021/10/14 06:08:41;;;;;;;15.33;7.20;;;9.20;97.30;;;;;;5030531;28;20180;-84
2021/10/14 06:11:07;;;;;;;19.47;8.10;;;9.20;97.30;;;;;;5029724;28;20530;-83
2021/10/14 06:13:35;;;;;;;15.70;7.63;;;9.20;97.30;;;;;;5039497;28;20191;-86
2021/10/14 06:16:01;;;;;;;19.13;8.00;;;9.20;97.30;;;;;;5067156;28;20709;-83
2021/10/14 06:18:26;;;;;;;19.10;7.60;;;9.20;97.30;;;;;;5046015;28;20430;-84
2021/10/14 06:20:52;;;;;;;22.37;9.07;;;9.20;97.30;;;;;;5041412;28;20204;-85
2021/10/14 06:23:17;;;;;;;19.70;7.80;;;9.20;97.30;;;;;;5028253;28;20175;-85
2021/10/14 06:25:43;;;;;;;17.67;9.00;;;9.20;97.30;;;;;;5034612;28;20629;-83
2021/10/14 06:28:08;;;;;;;17.83;7.60;;;9.20;97.30;;;;;;5034268;28;20212;-84
2021/10/14 06:30:34;;;;;;;15.70;8.33;;;9.20;97.30;;;;;;5043720;28;20270;-82
2021/10/14 06:33:00;;;;;;;18.87;8.70;;;9.20;97.30;;;;;;5038927;28;20180;-82
2021/10/14 06:35:26;;;;;;;19.00;8.70;;;9.20;97.30;;;;;;5037447;28;20204;-84
2021/10/14 06:37:53;;;;;;;25.03;8.77;;;9.30;97.30;;;;;;5037626;28;20422;-85
2021/10/14 06:40:19;;;;;;;20.30;8.70;;;9.30;97.30;;;;;;5038067;28;21013;-85
2021/10/14 06:42:45;;;;;;;27.83;11.33;;;9.30;97.30;;;;;;5037424;28;20509;-86
2021/10/14 06:45:10;;;;;;;22.27;9.67;;;9.30;97.30;;;;;;5036729;28;20219;-84
2021/10/14 06:47:36;;;;;;;24.37;9.33;;;9.30;97.30;;;;;;5036926;28;20180;-84
2021/10/14 06:50:06;;;;;;;22.07;9.63;;;9.30;97.30;;;;;;5037142;28;20184;-84
2021/10/14 06:52:32;;;;;;;22.57;9.13;;;9.30;97.30;;;;;;5036598;28;20906;-85
2021/10/14 06:54:58;;;;;;;24.10;10.70;;;9.30;97.30;;;;;;5037029;28;20480;-84
2021/10/14 06:57:25;;;;;;;24.37;9.37;;;9.40;97.30;;;;;;5039583;28;20832;-85
2021/10/14 06:59:51;;;;;;;29.00;11.83;;;9.40;97.30;;;;;;5036854;28;20475;-85
2021/10/14 07:02:16;;;;;;;27.43;10.77;;;9.40;97.30;;;;;;5036543;28;20415;-85
2021/10/14 07:04:42;;;;;;;23.77;11.43;;;9.40;97.30;;;;;;5036478;28;20230;-85
2021/10/14 07:07:08;;;;;;;25.97;12.13;;;9.40;97.30;;;;;;5037006;28;20584;-83
2021/10/14 07:09:33;;;;;;;29.10;11.83;;;9.40;97.30;;;;;;5036676;28;20657;-85
2021/10/14 07:12:00;;;;;;;32.03;12.00;;;9.40;97.30;;;;;;5036527;28;20266;-85
2021/10/14 07:14:26;;;;;;;28.07;11.90;;;9.40;97.30;;;;;;5036027;28;20792;-85
2021/10/14 07:16:52;;;;;;;24.90;11.40;;;9.50;97.30;;;;;;5036641;28;20425;-86
2021/10/14 07:19:19;;;;;;;24.97;11.30;;;9.50;97.30;;;;;;5036668;28;20297;-86
2021/10/14 07:21:44;;;;;;;28.63;11.53;;;9.50;97.30;;;;;;5036508;28;20481;-85
2021/10/14 07:24:10;;;;;;;26.27;11.60;;;9.50;97.30;;;;;;5036626;28;20442;-85
2021/10/14 07:26:36;;;;;;;25.90;12.57;;;9.60;97.30;;;;;;5036444;28;20171;-86
2021/10/14 07:29:04;;;;;;;28.43;13.33;;;9.60;97.30;;;;;;5036382;28;20176;-86
2021/10/14 07:31:31;;;;;;;31.77;13.60;;;9.60;97.30;;;;;;5036169;28;20186;-85
2021/10/14 07:33:56;;;;;;;28.00;11.40;;;9.60;97.30;;;;;;5036230;28;20446;-88
2021/10/14 07:36:22;;;;;;;30.80;13.00;;;9.60;97.30;;;;;;5036301;28;21015;-83
2021/10/14 07:38:47;;;;;;;30.20;12.47;;;9.60;97.30;;;;;;5036799;28;20183;-83
2021/10/14 07:41:13;;;;;;;29.57;12.57;;;9.60;97.30;;;;;;5036356;28;20222;-83
2021/10/14 07:43:39;;;;;;;29.77;12.57;;;9.70;97.30;;;;;;5036223;28;20283;-83
2021/10/14 07:46:07;;;;;;;23.17;11.77;;;9.70;97.30;;;;;;5036453;28;20186;-84
2021/10/14 07:48:34;;;;;;;28.77;11.60;;;9.70;97.30;;;;;;5036726;28;20239;-84
2021/10/14 07:51:00;;;;;;;29.60;11.80;;;9.80;97.30;;;;;;5036500;28;20457;-84
2021/10/14 07:53:26;;;;;;;32.10;12.13;;;9.80;97.30;;;;;;5036480;28;20927;-83
2021/10/14 07:55:52;;;;;;;26.17;11.97;;;9.80;97.30;;;;;;5036904;28;20410;-84
2021/10/14 07:58:17;;;;;;;25.53;12.57;;;9.80;97.30;;;;;;5054553;28;20541;-83
2021/10/14 08:00:43;;;;;;;34.03;12.97;;;9.80;97.30;;;;;;5036428;28;20219;-83
2021/10/14 08:03:09;;;;;;;26.20;10.60;;;9.90;97.30;;;;;;5036728;28;20611;-83
2021/10/14 08:05:35;;;;;;;26.77;11.73;;;9.90;97.30;;;;;;5035940;28;20290;-86
2021/10/14 08:08:01;;;;;;;25.70;11.07;;;9.90;97.30;;;;;;5036220;28;20180;-85
2021/10/14 08:10:29;;;;;;;26.60;11.07;;;9.90;97.30;;;;;;5036063;28;20419;-85
2021/10/14 08:12:55;;;;;;;26.33;11.30;;;10.00;97.30;;;;;;5054148;28;20694;-85
2021/10/14 08:15:21;;;;;;;22.30;10.20;;;9.90;97.30;;;;;;5036082;28;20434;-84
2021/10/14 08:17:46;;;;;;;23.63;10.80;;;10.00;97.30;;;;;;5036008;28;20291;-85
2021/10/14 08:20:12;;;;;;;23.30;10.17;;;10.00;97.30;;;;;;5036181;28;20556;-84
2021/10/14 08:22:38;;;;;;;29.97;11.97;;;10.00;97.30;;;;;;5035419;28;20208;-85
2021/10/14 08:25:06;;;;;;;25.20;11.10;;;10.00;97.30;;;;;;5036945;28;20196;-86
2021/10/14 08:27:31;;;;;;;19.40;10.47;;;10.00;97.30;;;;;;5041608;28;20180;-83
2021/10/14 08:29:57;;;;;;;23.47;11.10;;;10.00;97.30;;;;;;5039394;28;20421;-85
2021/10/14 08:32:22;;;;;;;25.23;10.50;;;10.00;97.30;;;;;;5040119;28;20313;-86
2021/10/14 08:34:48;;;;;;;27.43;10.67;;;10.10;97.30;;;;;;5040462;28;20206;-83
2021/10/14 08:37:20;;;;;;;19.80;9.87;;;10.10;97.30;;;;;;5047442;28;20178;-84
2021/10/14 08:39:50;;;;;;;23.13;9.37;;;10.10;97.30;;;;;;5060297;28;20173;-84
2021/10/14 08:42:15;;;;;;;21.53;9.10;;;10.20;97.30;;;;;;5060726;28;20512;-84
2021/10/14 08:44:41;;;;;;;18.47;8.57;;;10.20;97.30;;;;;;5060154;28;20483;-84
2021/10/14 08:47:07;;;;;;;18.57;9.17;;;10.20;97.30;;;;;;5060843;28;20294;-82
2021/10/14 08:49:33;;;;;;;18.23;8.77;;;10.20;97.30;;;;;;5060305;28;20953;-84
2021/10/14 08:51:59;;;;;;;16.07;9.00;;;10.20;97.30;;;;;;5060287;28;20174;-84
2021/10/14 08:54:24;;;;;;;17.40;9.23;;;10.30;97.30;;;;;;5059841;28;20195;-83
2021/10/14 08:56:50;;;;;;;20.60;9.30;;;10.30;97.30;;;;;;5060505;28;20185;-85
2021/10/14 08:59:20;;;;;;;17.23;8.00;;;10.30;97.30;;;;;;5060752;28;20171;-84
2021/10/14 09:02:07;;;;;;;23.47;9.30;;;10.30;97.30;;;;;;5060427;28;21025;-84
2021/10/14 09:04:35;;;;;;;20.07;9.83;;;10.30;97.30;;;;;;5044135;28;20502;-83
2021/10/14 09:07:15;;;;;;;18.03;9.60;;;10.30;97.30;;;;;;5033955;28;20454;-82
2021/10/14 09:09:43;;;;;;;20.13;9.07;;;10.40;97.30;;;;;;5016586;28;21074;-83
2021/10/14 09:12:10;;;;;;;19.93;9.60;;;10.40;97.30;;;;;;5017386;28;20416;-84
2021/10/14 09:14:57;;;;;;;22.10;10.77;;;10.40;97.30;;;;;;5001314;28;20506;-82
2021/10/14 09:17:38;;;;;;;18.60;8.77;;;10.40;97.30;;;;;;5068740;23;20493;-85
2021/10/14 09:20:31;;;;;;;22.77;10.60;;;10.50;97.30;;;;;;5057075;28;20999;-83
2021/10/14 09:23:21;;;;;;;20.27;10.27;;;10.50;97.30;;;;;;5074983;28;20440;-83
2021/10/14 09:25:48;;;;;;;19.70;9.40;;;10.50;97.30;;;;;;5071968;28;20438;-83
2021/10/14 09:28:18;;;;;;;21.87;9.80;;;10.50;97.30;;;;;;5057915;28;20428;-84
2021/10/14 09:30:54;;;;;;;21.37;10.13;;;10.50;97.30;;;;;;5062836;28;20517;-82
2021/10/14 09:33:32;;;;;;;19.23;9.93;;;10.60;97.30;;;;;;5076820;28;20435;-82
2021/10/14 09:36:21;;;;;;;23.30;11.87;;;10.60;97.30;;;;;;5056825;28;20430;-83
2021/10/14 09:38:57;;;;;;;23.20;11.13;;;10.70;97.30;;;;;;5055201;28;20410;-84
2021/10/14 09:41:25;;;;;;;22.97;9.70;;;10.80;97.30;;;;;;5073093;28;21184;-83
2021/10/14 09:43:53;;;;;;;21.43;10.10;;;10.80;97.30;;;;;;5074155;28;20417;-83
2021/10/14 09:46:46;;;;;;;23.33;11.57;;;10.90;97.30;;;;;;5067610;28;20478;-83
2021/10/14 09:49:19;;;;;;;21.10;10.00;;;10.90;97.30;;;;;;5050587;28;20410;-84
2021/10/14 09:51:45;;;;;;;19.63;10.30;;;11.00;97.30;;;;;;5055127;28;20422;-83
2021/10/14 09:54:11;;;;;;;20.10;10.50;;;11.00;97.30;;;;;;5055353;28;20429;-83
2021/10/14 09:56:36;;;;;;;19.60;9.80;;;11.10;97.30;;;;;;5054454;28;20204;-83
2021/10/14 09:59:02;;;;;;;22.53;10.50;;;11.20;97.30;;;;;;5055833;28;20255;-86
2021/10/14 10:01:29;;;;;;;22.60;10.10;;;11.30;97.30;;;;;;5054057;28;20199;-83
2021/10/14 10:03:56;;;;;;;18.63;9.47;;;11.40;97.30;;;;;;5053744;28;20172;-83
2021/10/14 10:06:33;;;;;;;17.67;9.63;;;11.40;97.30;;;;;;5054013;28;20442;-83
2021/10/14 10:09:04;;;;;;;18.43;9.77;;;11.50;97.30;;;;;;5054251;28;20410;-85
2021/10/14 10:11:30;;;;;;;19.70;10.30;;;11.50;97.30;;;;;;5055528;28;20422;-84
2021/10/14 10:14:01;;;;;;;18.60;8.77;;;11.50;97.30;;;;;;5057348;28;20777;-84
2021/10/14 10:16:27;;;;;;;17.07;8.83;;;11.50;97.30;;;;;;5054474;28;20458;-82
2021/10/14 10:18:54;;;;;;;15.63;8.47;;;11.60;97.30;;;;;;5057310;28;20417;-83
2021/10/14 10:21:31;;;;;;;18.10;8.83;;;11.50;97.30;;;;;;5050204;28;20487;-82
2021/10/14 10:23:59;;;;;;;17.10;9.73;;;11.60;97.30;;;;;;5051838;28;20422;-83
2021/10/14 10:26:34;;;;;;;14.40;7.80;;;11.60;97.30;;;;;;5043874;28;20439;-83
2021/10/14 10:29:14;;;;;;;16.07;8.07;;;11.80;97.30;;;;;;5053310;28;20425;-82
2021/10/14 10:31:46;;;;;;;14.13;8.47;;;11.80;97.30;;;;;;5051022;28;20469;-82
2021/10/14 10:34:35;;;;;;;13.60;7.90;;;11.90;97.30;;;;;;5054935;28;20847;-82
2021/10/14 10:37:30;;;;;;;12.93;8.47;;;12.00;97.30;;;;;;5054129;28;20441;-83
2021/10/14 10:40:13;;;;;;;21.00;14.75;;;12.20;97.30;;;;;;5053780;28;20446;-84
2021/10/14 10:43:01;;;;;;;18.43;8.73;;;12.20;97.30;;;;;;5053868;28;20410;-84
2021/10/14 10:45:30;;;;;;;12.93;9.27;;;12.30;97.30;;;;;;5054317;28;20936;-77
2021/10/14 10:47:56;;;;;;;14.57;8.10;;;12.30;97.30;;;;;;5054030;28;20410;-85
2021/10/14 10:50:26;;;;;;;14.47;7.50;;;12.30;97.30;;;;;;5053427;28;20476;-84
2021/10/14 10:53:09;;;;;;;12.03;7.40;;;12.30;97.30;;;;;;5053247;28;20935;-84
2021/10/14 10:55:45;;;;;;;16.67;9.17;;;12.40;97.30;;;;;;5053754;28;20442;-84
2021/10/14 10:58:14;;;;;;;11.67;7.23;;;12.40;97.30;;;;;;5054653;28;20493;-84
2021/10/14 11:00:42;;;;;;;16.73;9.70;;;12.50;97.30;;;;;;5054155;28;20461;-85
2021/10/14 11:03:13;;;;;;;13.57;8.30;;;12.60;97.30;;;;;;5053499;28;20517;-84
2021/10/14 11:05:46;;;;;;;12.10;7.57;;;12.60;97.30;;;;;;5053778;28;20939;-82
2021/10/14 11:08:17;;;;;;;11.63;7.17;;;12.60;97.30;;;;;;5054003;28;20440;-83
2021/10/14 11:10:45;;;;;;;11.20;6.90;;;12.60;97.30;;;;;;5053009;28;20426;-84
2021/10/14 11:13:11;;;;;;;12.93;7.63;;;12.60;97.30;;;;;;5052463;28;20432;-82
2021/10/14 11:15:37;;;;;;;12.47;6.80;;;12.60;97.30;;;;;;5052663;28;20454;-83
2021/10/14 11:18:04;;;;;;;12.33;7.20;;;12.60;97.30;;;;;;5052530;28;20710;-84
2021/10/14 11:20:31;;;;;;;11.07;6.80;;;12.60;97.30;;;;;;5053580;28;20641;-83
2021/10/14 11:23:08;;;;;;;13.93;6.30;;;12.70;97.30;;;;;;5053987;28;20419;-84
2021/10/14 11:25:36;;;;;;;11.50;7.30;;;12.70;97.30;;;;;;5053949;28;20468;-84
2021/10/14 11:28:06;;;;;;;9.57;6.10;;;12.70;97.30;;;;;;5053555;28;20436;-85
2021/10/14 11:30:45;;;;;;;14.53;7.23;;;12.70;97.30;;;;;;5053403;28;20479;-84
2021/10/14 11:33:26;;;;;;;13.23;7.70;;;12.80;97.30;;;;;;5052974;28;20780;-84
2021/10/14 11:35:58;;;;;;;11.00;6.70;;;12.80;97.30;;;;;;5053405;28;20444;-85
2021/10/14 11:38:23;;;;;;;10.07;6.33;;;12.80;97.30;;;;;;5052957;28;20486;-84
2021/10/14 11:40:49;;;;;;;10.27;6.40;;;12.80;97.30;;;;;;5052538;28;21036;-83
2021/10/14 11:43:15;;;;;;;12.37;7.53;;;12.70;97.30;;;;;;5052705;28;20222;-83
2021/10/14 11:45:44;;;;;;;11.00;7.00;;;12.70;97.30;;;;;;5052910;28;20208;-84
2021/10/14 11:48:30;;;;;;;13.43;6.80;;;12.60;97.30;;;;;;5055013;28;20160;-86
2021/10/14 11:51:05;;;;;;;10.27;6.20;;;12.60;97.30;;;;;;5053242;28;20996;-84
2021/10/14 11:53:31;;;;;;;10.00;6.50;;;12.60;97.30;;;;;;5053578;28;20790;-85
2021/10/14 11:56:01;;;;;;;11.53;6.53;;;13.00;97.30;;;;;;5052312;28;20940;-84
2021/10/14 11:58:27;;;;;;;13.97;7.23;;;13.20;97.30;;;;;;5052545;28;20187;-84
2021/10/14 12:00:54;;;;;;;9.90;6.40;;;13.40;97.30;;;;;;5051528;28;20458;-84
2021/10/14 12:03:20;;;;;;;11.97;6.67;;;13.50;97.30;;;;;;5051788;28;20661;-83
2021/10/14 12:05:45;;;;;;;16.57;7.30;;;13.40;97.30;;;;;;5051171;28;20418;-83
2021/10/14 12:08:11;;;;;;;12.37;7.10;;;13.30;97.30;;;;;;5052491;28;21060;-83
2021/10/14 12:10:40;;;;;;;11.13;6.60;;;13.20;97.30;;;;;;5051058;28;20270;-82
2021/10/14 12:13:07;;;;;;;14.10;7.10;;;13.10;97.30;;;;;;5050928;28;20172;-85
2021/10/14 12:15:33;;;;;;;12.53;6.50;;;13.10;97.30;;;;;;5051419;28;20415;-84
2021/10/14 12:17:59;;;;;;;12.20;7.17;;;13.00;97.30;;;;;;5052391;28;20413;-85
2021/10/14 12:20:26;;;;;;;13.97;7.00;;;13.00;97.30;;;;;;5050215;28;20465;-85
2021/10/14 12:22:58;;;;;;;10.90;7.03;;;13.00;97.30;;;;;;5051633;28;20406;-85
2021/10/14 12:25:25;;;;;;;11.37;6.87;;;13.10;97.30;;;;;;5050193;28;20411;-84
2021/10/14 12:27:56;;;;;;;12.40;6.40;;;13.10;97.30;;;;;;5048722;28;20522;-84
2021/10/14 12:30:28;;;;;;;12.17;7.37;;;13.10;97.30;;;;;;5049211;28;20422;-86
2021/10/14 12:32:57;;;;;;;12.70;6.70;;;13.00;97.30;;;;;;5049201;28;20445;-84
2021/10/14 12:35:25;;;;;;;12.83;7.23;;;13.00;97.30;;;;;;5049967;28;20421;-85
2021/10/14 12:38:12;;;;;;;18.73;6.97;;;13.00;97.30;;;;;;5050058;28;20517;-84
2021/10/14 12:40:44;;;;;;;18.83;7.63;;;13.00;97.30;;;;;;5050804;28;20464;-84
2021/10/14 12:43:23;;;;;;;14.30;7.47;;;13.00;97.30;;;;;;5050554;28;20421;-84
2021/10/14 12:53:54;;;;;;;11.70;6.93;;;13.00;97.30;;;;;;5050483;28;20422;-84